Time;durP1;ratioP1;P1;durP2;ratioP2;P2;SDS_P1;SDS_P2;PMS_P1;PMS_P2;Temp;Humidity;BMP_temperature;BMP_pressure;BME280_temperature;BME280_humidity;BME280_pressure;Samples;Min_cycle;Max_cycle;Signal;HPM_P1;HPM_P2
2022/10/15 17:50:50;;;;;;;2.63;1.60;;;14.70;99.90;;;;;;6334146;22;20220;-73
2022/10/15 17:53:17;;;;;;;3.27;1.53;;;14.70;99.90;;;;;;6337365;22;20215;-73
2022/10/15 17:55:44;;;;;;;2.83;1.60;;;14.70;99.90;;;;;;6334195;22;20489;-74
2022/10/15 17:58:11;;;;;;;2.77;1.40;;;14.60;99.90;;;;;;6333927;22;20189;-73
2022/10/15 18:00:38;;;;;;;1.73;1.30;;;14.60;99.90;;;;;;6335454;22;20181;-73
2022/10/15 18:03:04;;;;;;;4.53;1.43;;;14.60;99.90;;;;;;6335642;22;20176;-71
2022/10/15 18:05:31;;;;;;;3.70;1.60;;;14.50;99.90;;;;;;6335801;22;20268;-74
2022/10/15 18:08:02;;;;;;;3.17;1.77;;;14.60;99.90;;;;;;6336983;22;20719;-74
2022/10/15 18:10:29;;;;;;;3.70;1.90;;;14.60;99.90;;;;;;6337238;22;20188;-73
2022/10/15 18:12:56;;;;;;;3.40;1.73;;;14.60;99.90;;;;;;6337426;22;20207;-73
2022/10/15 18:15:23;;;;;;;3.47;1.90;;;14.50;99.90;;;;;;6337464;22;20544;-73
2022/10/15 18:17:50;;;;;;;4.53;1.73;;;14.40;99.90;;;;;;6335402;22;20241;-73
2022/10/15 18:20:17;;;;;;;3.93;1.83;;;14.40;99.90;;;;;;6337203;22;20252;-74
2022/10/15 18:22:43;;;;;;;3.67;2.00;;;14.40;99.90;;;;;;6336293;22;20173;-73
2022/10/15 18:25:11;;;;;;;4.30;2.00;;;14.40;99.90;;;;;;6337180;22;20177;-73
2022/10/15 18:27:38;;;;;;;3.53;1.97;;;14.30;99.90;;;;;;6336535;22;20664;-73
2022/10/15 18:30:06;;;;;;;3.93;1.93;;;14.30;99.90;;;;;;6337471;22;20533;-73
2022/10/15 18:32:33;;;;;;;3.80;2.07;;;14.30;99.90;;;;;;6337125;22;20173;-73
2022/10/15 18:35:00;;;;;;;2.77;1.80;;;14.30;99.90;;;;;;6336618;22;20183;-73
2022/10/15 18:37:27;;;;;;;3.57;1.90;;;14.20;99.90;;;;;;6336653;22;20204;-73
2022/10/15 18:39:54;;;;;;;3.33;1.80;;;14.10;99.90;;;;;;6338230;22;20518;-73
2022/10/15 18:42:22;;;;;;;3.70;1.77;;;14.20;99.90;;;;;;6338878;22;20181;-73
2022/10/15 18:44:49;;;;;;;4.60;2.30;;;14.20;99.90;;;;;;6337721;22;20177;-74
2022/10/15 18:47:16;;;;;;;6.00;2.17;;;14.20;99.90;;;;;;6338022;22;20197;-74
2022/10/15 18:49:43;;;;;;;4.33;2.60;;;14.10;99.90;;;;;;6337250;22;20223;-74
2022/10/15 18:52:10;;;;;;;4.23;1.83;;;14.10;99.90;;;;;;6333221;22;20184;-74
2022/10/15 18:54:37;;;;;;;2.33;1.43;;;14.10;99.90;;;;;;6337434;22;20761;-74
2022/10/15 18:57:04;;;;;;;3.53;1.80;;;14.00;99.90;;;;;;6339652;22;20197;-73
2022/10/15 18:59:32;;;;;;;4.40;1.70;;;14.00;99.90;;;;;;6338381;22;20490;-73
2022/10/15 19:01:59;;;;;;;3.43;1.97;;;14.10;99.90;;;;;;6338787;22;20180;-73
2022/10/15 19:04:27;;;;;;;3.87;1.60;;;14.10;99.90;;;;;;6338606;22;20229;-73
2022/10/15 19:06:55;;;;;;;3.00;1.60;;;14.10;99.90;;;;;;6338092;22;20276;-72
2022/10/15 19:09:24;;;;;;;4.20;1.60;;;14.20;99.90;;;;;;6339007;22;20251;-73
2022/10/15 19:11:53;;;;;;;2.40;1.43;;;14.10;99.90;;;;;;6338374;22;20181;-73
2022/10/15 19:14:21;;;;;;;4.33;1.70;;;14.10;99.90;;;;;;6338514;22;20232;-75
2022/10/15 19:16:49;;;;;;;2.40;1.40;;;14.10;99.90;;;;;;6338583;22;20272;-73
2022/10/15 19:19:18;;;;;;;3.27;1.63;;;14.10;99.90;;;;;;6338219;22;20641;-74
2022/10/15 19:21:46;;;;;;;2.47;1.50;;;14.10;99.90;;;;;;6337656;22;20647;-73
2022/10/15 19:24:13;;;;;;;3.63;1.80;;;14.10;99.90;;;;;;6337991;22;20181;-73
2022/10/15 19:26:40;;;;;;;3.03;1.33;;;14.10;99.90;;;;;;6337591;22;20696;-74
2022/10/15 19:29:07;;;;;;;2.87;1.60;;;14.00;99.90;;;;;;6338202;22;20177;-75
2022/10/15 19:31:35;;;;;;;4.10;1.97;;;14.00;99.90;;;;;;6338013;22;20201;-74
2022/10/15 19:34:04;;;;;;;2.20;1.43;;;14.00;99.90;;;;;;6337658;22;20283;-75
2022/10/15 19:36:34;;;;;;;5.73;1.90;;;14.00;99.90;;;;;;6337842;22;20197;-75
2022/10/15 19:39:03;;;;;;;3.40;1.60;;;14.00;99.90;;;;;;6337706;22;20644;-74
2022/10/15 19:41:30;;;;;;;9.17;4.57;;;14.00;99.90;;;;;;6338563;22;20209;-75
2022/10/15 19:43:56;;;;;;;4.63;2.47;;;13.90;99.90;;;;;;6338028;22;20199;-75
2022/10/15 19:46:23;;;;;;;4.93;2.00;;;13.90;99.90;;;;;;6338488;22;20272;-73
2022/10/15 19:48:50;;;;;;;3.53;1.80;;;13.90;99.90;;;;;;6337571;22;20536;-74
2022/10/15 19:51:18;;;;;;;2.97;1.80;;;13.90;99.90;;;;;;6338161;22;20691;-74
2022/10/15 19:53:45;;;;;;;5.40;1.80;;;13.90;99.90;;;;;;6337397;22;20227;-74
2022/10/15 19:56:12;;;;;;;5.83;1.97;;;13.80;99.90;;;;;;6337686;22;20197;-73
2022/10/15 19:58:39;;;;;;;3.70;1.73;;;13.90;99.90;;;;;;6337348;22;20180;-74
2022/10/15 20:01:06;;;;;;;4.23;1.67;;;13.90;99.90;;;;;;6337980;22;20177;-73
2022/10/15 20:03:33;;;;;;;5.33;2.17;;;13.90;99.90;;;;;;6337219;22;20177;-74
2022/10/15 20:06:01;;;;;;;3.67;1.53;;;13.90;99.90;;;;;;6336694;22;20587;-74
2022/10/15 20:08:31;;;;;;;4.47;1.70;;;13.80;99.90;;;;;;6337731;22;20243;-73
2022/10/15 20:10:58;;;;;;;2.20;1.40;;;13.80;99.90;;;;;;6337407;22;20599;-75
2022/10/15 20:13:25;;;;;;;5.93;1.60;;;13.80;99.90;;;;;;6337638;22;20243;-73
2022/10/15 20:15:53;;;;;;;2.67;1.70;;;13.80;99.90;;;;;;6338569;22;20711;-73
2022/10/15 20:18:21;;;;;;;2.10;1.63;;;13.80;99.90;;;;;;6339104;22;20471;-75
2022/10/15 20:20:48;;;;;;;4.80;1.80;;;13.70;99.90;;;;;;6339550;22;20177;-75
2022/10/15 20:23:16;;;;;;;3.00;1.60;;;13.80;99.90;;;;;;6339155;22;20180;-74
2022/10/15 20:25:44;;;;;;;4.57;1.80;;;13.70;99.90;;;;;;6339226;22;20174;-75
2022/10/15 20:28:12;;;;;;;3.17;1.70;;;13.70;99.90;;;;;;6339406;22;20174;-74
2022/10/15 20:30:40;;;;;;;3.70;1.80;;;13.70;99.90;;;;;;6339597;22;20180;-73
2022/10/15 20:33:08;;;;;;;3.37;1.97;;;13.80;99.90;;;;;;6338857;22;20177;-74
2022/10/15 20:35:36;;;;;;;2.70;1.60;;;13.70;99.90;;;;;;6339101;22;20173;-74
2022/10/15 20:38:03;;;;;;;2.47;1.70;;;13.70;99.90;;;;;;6339186;22;20260;-74
2022/10/15 20:40:30;;;;;;;3.00;1.70;;;13.70;99.90;;;;;;6339086;22;20177;-74
2022/10/15 20:42:59;;;;;;;2.37;1.60;;;13.70;99.90;;;;;;6339164;22;20186;-74
2022/10/15 20:45:30;;;;;;;2.03;1.40;;;13.70;99.90;;;;;;6339126;22;20177;-73
2022/10/15 20:47:57;;;;;;;2.33;1.43;;;13.80;99.90;;;;;;6338852;22;20621;-74
2022/10/15 20:50:28;;;;;;;3.27;1.50;;;13.80;99.90;;;;;;6338311;22;20634;-73
2022/10/15 20:52:57;;;;;;;3.60;1.30;;;13.80;99.90;;;;;;6339211;22;20180;-73
2022/10/15 20:55:24;;;;;;;4.87;1.50;;;13.80;99.90;;;;;;6338842;22;20292;-73
2022/10/15 20:57:51;;;;;;;4.20;1.50;;;13.80;99.90;;;;;;6338850;22;20193;-73
2022/10/15 21:00:19;;;;;;;4.40;1.27;;;13.80;99.90;;;;;;6339444;22;20174;-73
2022/10/15 21:02:46;;;;;;;2.00;1.37;;;13.90;99.90;;;;;;6339170;22;20174;-73
2022/10/15 21:05:13;;;;;;;2.23;1.20;;;13.90;99.90;;;;;;6338559;22;20565;-73
2022/10/15 21:07:40;;;;;;;1.30;1.07;;;13.90;99.90;;;;;;6339343;22;20194;-73
2022/10/15 21:10:07;;;;;;;2.90;1.30;;;13.90;99.90;;;;;;6338646;22;20173;-73
2022/10/15 21:12:34;;;;;;;3.33;1.40;;;13.90;99.90;;;;;;6339017;22;20183;-73
2022/10/15 21:15:00;;;;;;;3.83;1.00;;;13.90;99.90;;;;;;6337932;22;20201;-73
2022/10/15 21:17:28;;;;;;;2.77;1.20;;;13.90;99.90;;;;;;6338549;22;20275;-73
2022/10/15 21:19:55;;;;;;;1.87;1.20;;;13.90;99.90;;;;;;6338537;22;20555;-73
2022/10/15 21:22:22;;;;;;;1.93;1.30;;;13.90;99.90;;;;;;6339449;22;20538;-73
2022/10/15 21:24:49;;;;;;;2.00;1.37;;;13.90;99.90;;;;;;6338972;22;20180;-73
2022/10/15 21:27:16;;;;;;;4.20;1.33;;;14.00;99.90;;;;;;6338085;22;20225;-73
2022/10/15 21:29:44;;;;;;;2.23;1.13;;;14.00;99.90;;;;;;6338930;22;20252;-73
2022/10/15 21:32:11;;;;;;;1.40;1.20;;;14.00;99.90;;;;;;6338957;22;20622;-73
2022/10/15 21:34:39;;;;;;;1.83;1.30;;;14.00;99.90;;;;;;6338767;22;20212;-73
2022/10/15 21:37:06;;;;;;;3.30;1.10;;;14.00;99.90;;;;;;6338147;22;20684;-73
2022/10/15 21:39:33;;;;;;;2.77;1.40;;;14.00;99.90;;;;;;6338762;22;20180;-73
2022/10/15 21:41:59;;;;;;;2.00;1.10;;;14.10;99.90;;;;;;6339017;22;20475;-73
2022/10/15 21:44:26;;;;;;;1.57;0.90;;;14.20;99.90;;;;;;6338501;22;20263;-73
2022/10/15 21:46:53;;;;;;;3.23;1.13;;;14.20;99.90;;;;;;6338525;22;20200;-73
2022/10/15 21:49:20;;;;;;;1.97;1.17;;;14.20;99.90;;;;;;6338655;22;20181;-73
2022/10/15 21:51:48;;;;;;;3.47;1.30;;;14.20;99.90;;;;;;6338991;22;20177;-73
2022/10/15 21:54:15;;;;;;;1.93;1.10;;;14.10;99.90;;;;;;6339977;22;20208;-74
